sensor_id;sensor_type;location;lat;lon;timestamp;temperature;humidity
37938;DHT22;23763;48.130;11.602;2023-06-19T00:00:35;21.70;77.00
37938;DHT22;23763;48.130;11.602;2023-06-19T00:03:00;21.60;77.40
37938;DHT22;23763;48.130;11.602;2023-06-19T00:05:26;21.60;77.80
37938;DHT22;23763;48.130;11.602;2023-06-19T00:07:51;21.50;78.10
37938;DHT22;23763;48.130;11.602;2023-06-19T00:10:17;21.60;78.00
37938;DHT22;23763;48.130;11.602;2023-06-19T00:12:43;21.70;77.80
37938;DHT22;23763;48.130;11.602;2023-06-19T00:15:09;21.80;77.60
37938;DHT22;23763;48.130;11.602;2023-06-19T00:17:35;21.80;77.50
37938;DHT22;23763;48.130;11.602;2023-06-19T00:20:03;21.80;77.20
37938;DHT22;23763;48.130;11.602;2023-06-19T00:22:29;21.90;77.20
37938;DHT22;23763;48.130;11.602;2023-06-19T00:24:55;21.90;77.00
37938;DHT22;23763;48.130;11.602;2023-06-19T00:27:21;22.00;77.10
37938;DHT22;23763;48.130;11.602;2023-06-19T00:29:47;22.00;77.30
37938;DHT22;23763;48.130;11.602;2023-06-19T00:32:12;22.00;77.60
37938;DHT22;23763;48.130;11.602;2023-06-19T00:34:38;21.90;78.50
37938;DHT22;23763;48.130;11.602;2023-06-19T00:37:04;21.90;78.00
37938;DHT22;23763;48.130;11.602;2023-06-19T00:39:29;21.90;78.50
37938;DHT22;23763;48.130;11.602;2023-06-19T00:41:56;21.80;79.00
37938;DHT22;23763;48.130;11.602;2023-06-19T00:44:22;21.80;79.30
37938;DHT22;23763;48.130;11.602;2023-06-19T00:46:51;21.70;79.50
37938;DHT22;23763;48.130;11.602;2023-06-19T00:49:20;21.70;79.60
37938;DHT22;23763;48.130;11.602;2023-06-19T00:51:46;21.70;79.70
37938;DHT22;23763;48.130;11.602;2023-06-19T00:54:12;21.80;79.40
37938;DHT22;23763;48.130;11.602;2023-06-19T00:56:38;21.80;79.50
37938;DHT22;23763;48.130;11.602;2023-06-19T00:59:15;21.80;79.70
37938;DHT22;23763;48.130;11.602;2023-06-19T01:01:42;21.70;79.70
37938;DHT22;23763;48.130;11.602;2023-06-19T01:04:07;21.70;79.50
37938;DHT22;23763;48.130;11.602;2023-06-19T01:06:50;21.80;79.50
37938;DHT22;23763;48.130;11.602;2023-06-19T01:09:17;21.70;80.20
37938;DHT22;23763;48.130;11.602;2023-06-19T01:11:47;21.70;80.10
37938;DHT22;23763;48.130;11.602;2023-06-19T01:14:39;21.80;80.00
37938;DHT22;23763;48.130;11.602;2023-06-19T01:17:06;21.80;79.70
37938;DHT22;23763;48.130;11.602;2023-06-19T01:19:32;21.80;79.80
37938;DHT22;23763;48.130;11.602;2023-06-19T01:22:01;21.70;79.90
37938;DHT22;23763;48.130;11.602;2023-06-19T01:24:27;21.80;80.00
37938;DHT22;23763;48.130;11.602;2023-06-19T01:26:53;21.80;80.10
37938;DHT22;23763;48.130;11.602;2023-06-19T01:29:18;21.70;80.30
37938;DHT22;23763;48.130;11.602;2023-06-19T01:32:10;21.70;80.30
37938;DHT22;23763;48.130;11.602;2023-06-19T01:34:37;21.70;80.60
37938;DHT22;23763;48.130;11.602;2023-06-19T01:37:04;21.70;80.90
37938;DHT22;23763;48.130;11.602;2023-06-19T01:39:32;21.70;81.00
37938;DHT22;23763;48.130;11.602;2023-06-19T01:41:58;21.60;81.20
37938;DHT22;23763;48.130;11.602;2023-06-19T01:44:24;21.60;81.20
37938;DHT22;23763;48.130;11.602;2023-06-19T01:46:50;21.70;81.00
37938;DHT22;23763;48.130;11.602;2023-06-19T01:49:17;21.70;81.10
37938;DHT22;23763;48.130;11.602;2023-06-19T01:51:42;21.70;81.00
37938;DHT22;23763;48.130;11.602;2023-06-19T01:54:08;21.80;80.90
37938;DHT22;23763;48.130;11.602;2023-06-19T01:56:34;21.80;80.70
37938;DHT22;23763;48.130;11.602;2023-06-19T01:59:00;21.70;81.00
37938;DHT22;23763;48.130;11.602;2023-06-19T02:01:25;21.80;81.10
37938;DHT22;23763;48.130;11.602;2023-06-19T02:03:51;21.70;81.10
37938;DHT22;23763;48.130;11.602;2023-06-19T02:06:17;21.70;81.10
37938;DHT22;23763;48.130;11.602;2023-06-19T02:08:43;21.70;81.20
37938;DHT22;23763;48.130;11.602;2023-06-19T02:11:08;21.70;81.40
37938;DHT22;23763;48.130;11.602;2023-06-19T02:13:34;21.70;82.30
37938;DHT22;23763;48.130;11.602;2023-06-19T02:15:59;21.70;81.60
37938;DHT22;23763;48.130;11.602;2023-06-19T02:18:25;21.70;81.50
37938;DHT22;23763;48.130;11.602;2023-06-19T02:20:51;21.70;82.60
37938;DHT22;23763;48.130;11.602;2023-06-19T02:23:16;21.70;82.00
37938;DHT22;23763;48.130;11.602;2023-06-19T02:25:42;21.70;81.90
37938;DHT22;23763;48.130;11.602;2023-06-19T02:28:08;21.60;82.10
37938;DHT22;23763;48.130;11.602;2023-06-19T02:30:34;21.60;82.30
37938;DHT22;23763;48.130;11.602;2023-06-19T02:33:00;21.60;82.70
37938;DHT22;23763;48.130;11.602;2023-06-19T02:35:26;21.50;83.00
37938;DHT22;23763;48.130;11.602;2023-06-19T02:37:52;21.50;83.20
37938;DHT22;23763;48.130;11.602;2023-06-19T02:40:17;21.50;83.20
37938;DHT22;23763;48.130;11.602;2023-06-19T02:42:43;21.50;83.40
37938;DHT22;23763;48.130;11.602;2023-06-19T02:45:09;21.50;83.40
37938;DHT22;23763;48.130;11.602;2023-06-19T02:47:35;21.50;83.40
37938;DHT22;23763;48.130;11.602;2023-06-19T02:50:02;21.50;83.70
37938;DHT22;23763;48.130;11.602;2023-06-19T02:52:29;21.50;83.70
37938;DHT22;23763;48.130;11.602;2023-06-19T02:54:55;21.50;85.90
37938;DHT22;23763;48.130;11.602;2023-06-19T02:57:21;21.40;89.00
37938;DHT22;23763;48.130;11.602;2023-06-19T02:59:47;21.20;88.70
37938;DHT22;23763;48.130;11.602;2023-06-19T03:02:12;21.20;89.30
37938;DHT22;23763;48.130;11.602;2023-06-19T03:04:39;21.10;89.40
37938;DHT22;23763;48.130;11.602;2023-06-19T03:07:05;21.00;90.00
37938;DHT22;23763;48.130;11.602;2023-06-19T03:09:31;21.00;90.60
37938;DHT22;23763;48.130;11.602;2023-06-19T03:11:57;21.00;90.30
37938;DHT22;23763;48.130;11.602;2023-06-19T03:14:22;21.00;90.00
37938;DHT22;23763;48.130;11.602;2023-06-19T03:16:48;21.00;89.40
37938;DHT22;23763;48.130;11.602;2023-06-19T03:19:13;21.00;89.30
37938;DHT22;23763;48.130;11.602;2023-06-19T03:21:39;21.00;90.00
37938;DHT22;23763;48.130;11.602;2023-06-19T03:24:04;21.00;89.30
37938;DHT22;23763;48.130;11.602;2023-06-19T03:26:30;21.00;89.50
37938;DHT22;23763;48.130;11.602;2023-06-19T03:28:56;21.00;89.40
37938;DHT22;23763;48.130;11.602;2023-06-19T03:31:21;20.90;89.00
37938;DHT22;23763;48.130;11.602;2023-06-19T03:33:47;21.00;89.40
37938;DHT22;23763;48.130;11.602;2023-06-19T03:36:13;21.00;90.00
37938;DHT22;23763;48.130;11.602;2023-06-19T03:38:38;21.10;89.60
37938;DHT22;23763;48.130;11.602;2023-06-19T03:41:04;21.10;89.60
37938;DHT22;23763;48.130;11.602;2023-06-19T03:43:29;21.10;89.40
37938;DHT22;23763;48.130;11.602;2023-06-19T03:45:55;21.20;89.00
37938;DHT22;23763;48.130;11.602;2023-06-19T03:48:21;21.10;88.60
37938;DHT22;23763;48.130;11.602;2023-06-19T03:50:46;21.10;88.90
37938;DHT22;23763;48.130;11.602;2023-06-19T03:53:12;21.10;88.90
37938;DHT22;23763;48.130;11.602;2023-06-19T03:55:37;21.20;88.80
37938;DHT22;23763;48.130;11.602;2023-06-19T03:58:03;21.10;88.70
37938;DHT22;23763;48.130;11.602;2023-06-19T04:00:29;21.20;87.90
37938;DHT22;23763;48.130;11.602;2023-06-19T04:02:54;21.20;88.00
37938;DHT22;23763;48.130;11.602;2023-06-19T04:05:20;21.30;87.90
37938;DHT22;23763;48.130;11.602;2023-06-19T04:07:46;21.20;87.50
37938;DHT22;23763;48.130;11.602;2023-06-19T04:10:12;21.20;87.70
37938;DHT22;23763;48.130;11.602;2023-06-19T04:12:38;21.20;87.40
37938;DHT22;23763;48.130;11.602;2023-06-19T04:15:06;21.20;87.60
37938;DHT22;23763;48.130;11.602;2023-06-19T04:17:32;21.20;87.40
37938;DHT22;23763;48.130;11.602;2023-06-19T04:19:57;21.30;87.20
37938;DHT22;23763;48.130;11.602;2023-06-19T04:22:23;21.20;87.40
37938;DHT22;23763;48.130;11.602;2023-06-19T04:24:49;21.30;87.40
37938;DHT22;23763;48.130;11.602;2023-06-19T04:27:14;21.30;87.30
37938;DHT22;23763;48.130;11.602;2023-06-19T04:29:40;21.30;87.30
37938;DHT22;23763;48.130;11.602;2023-06-19T04:32:06;21.30;87.20
37938;DHT22;23763;48.130;11.602;2023-06-19T04:34:38;21.30;87.20
37938;DHT22;23763;48.130;11.602;2023-06-19T04:37:04;21.40;87.30
37938;DHT22;23763;48.130;11.602;2023-06-19T04:39:30;21.40;88.30
37938;DHT22;23763;48.130;11.602;2023-06-19T04:41:55;21.30;89.90
37938;DHT22;23763;48.130;11.602;2023-06-19T04:44:21;21.30;90.30
37938;DHT22;23763;48.130;11.602;2023-06-19T04:46:47;21.30;90.70
37938;DHT22;23763;48.130;11.602;2023-06-19T04:49:13;21.30;90.40
37938;DHT22;23763;48.130;11.602;2023-06-19T04:51:41;21.30;90.60
37938;DHT22;23763;48.130;11.602;2023-06-19T04:54:06;21.30;90.30
37938;DHT22;23763;48.130;11.602;2023-06-19T04:56:32;21.40;90.20
37938;DHT22;23763;48.130;11.602;2023-06-19T04:58:58;21.40;90.30
37938;DHT22;23763;48.130;11.602;2023-06-19T05:01:26;21.50;89.20
37938;DHT22;23763;48.130;11.602;2023-06-19T05:03:56;21.60;88.30
37938;DHT22;23763;48.130;11.602;2023-06-19T05:06:25;21.60;88.50
37938;DHT22;23763;48.130;11.602;2023-06-19T05:08:51;21.60;88.20
37938;DHT22;23763;48.130;11.602;2023-06-19T05:11:18;21.70;88.40
37938;DHT22;23763;48.130;11.602;2023-06-19T05:13:44;21.70;88.10
37938;DHT22;23763;48.130;11.602;2023-06-19T05:16:10;21.70;88.30
37938;DHT22;23763;48.130;11.602;2023-06-19T05:18:35;21.80;88.70
37938;DHT22;23763;48.130;11.602;2023-06-19T05:21:01;21.80;88.70
37938;DHT22;23763;48.130;11.602;2023-06-19T05:23:26;21.80;88.70
37938;DHT22;23763;48.130;11.602;2023-06-19T05:25:52;21.90;88.60
37938;DHT22;23763;48.130;11.602;2023-06-19T05:28:18;22.00;88.10
37938;DHT22;23763;48.130;11.602;2023-06-19T05:30:43;22.00;88.10
37938;DHT22;23763;48.130;11.602;2023-06-19T05:33:10;22.10;88.90
37938;DHT22;23763;48.130;11.602;2023-06-19T05:35:42;22.10;88.90
37938;DHT22;23763;48.130;11.602;2023-06-19T05:38:08;22.00;89.20
37938;DHT22;23763;48.130;11.602;2023-06-19T05:40:34;22.10;89.50
37938;DHT22;23763;48.130;11.602;2023-06-19T05:42:59;22.10;89.30
37938;DHT22;23763;48.130;11.602;2023-06-19T05:45:25;22.10;89.40
37938;DHT22;23763;48.130;11.602;2023-06-19T05:47:51;22.10;90.00
37938;DHT22;23763;48.130;11.602;2023-06-19T05:50:16;22.10;90.00
37938;DHT22;23763;48.130;11.602;2023-06-19T05:52:42;22.10;90.30
37938;DHT22;23763;48.130;11.602;2023-06-19T05:55:09;22.20;90.20
37938;DHT22;23763;48.130;11.602;2023-06-19T05:57:35;22.20;90.70
37938;DHT22;23763;48.130;11.602;2023-06-19T06:00:01;22.30;90.30
37938;DHT22;23763;48.130;11.602;2023-06-19T06:02:26;22.30;91.00
37938;DHT22;23763;48.130;11.602;2023-06-19T06:04:53;22.30;91.30
37938;DHT22;23763;48.130;11.602;2023-06-19T06:07:19;22.30;91.20
37938;DHT22;23763;48.130;11.602;2023-06-19T06:09:45;22.30;91.10
37938;DHT22;23763;48.130;11.602;2023-06-19T06:12:10;22.40;91.30
37938;DHT22;23763;48.130;11.602;2023-06-19T06:14:37;22.30;91.30
37938;DHT22;23763;48.130;11.602;2023-06-19T06:17:02;22.40;91.30
37938;DHT22;23763;48.130;11.602;2023-06-19T06:19:30;22.40;91.20
37938;DHT22;23763;48.130;11.602;2023-06-19T06:21:56;22.50;91.20
37938;DHT22;23763;48.130;11.602;2023-06-19T06:24:22;22.60;91.00
37938;DHT22;23763;48.130;11.602;2023-06-19T06:26:47;22.70;90.90
37938;DHT22;23763;48.130;11.602;2023-06-19T06:29:13;22.80;90.50
37938;DHT22;23763;48.130;11.602;2023-06-19T06:31:38;23.00;90.10
37938;DHT22;23763;48.130;11.602;2023-06-19T06:34:07;23.20;89.60
37938;DHT22;23763;48.130;11.602;2023-06-19T06:36:32;23.40;89.10
37938;DHT22;23763;48.130;11.602;2023-06-19T06:38:58;23.50;88.70
37938;DHT22;23763;48.130;11.602;2023-06-19T06:41:23;23.60;88.30
37938;DHT22;23763;48.130;11.602;2023-06-19T06:43:49;23.60;87.80
37938;DHT22;23763;48.130;11.602;2023-06-19T06:46:15;23.90;87.20
37938;DHT22;23763;48.130;11.602;2023-06-19T06:48:41;24.50;85.50
37938;DHT22;23763;48.130;11.602;2023-06-19T06:51:06;27.30;80.40
37938;DHT22;23763;48.130;11.602;2023-06-19T06:53:32;29.30;73.40
37938;DHT22;23763;48.130;11.602;2023-06-19T06:55:58;30.50;69.40
37938;DHT22;23763;48.130;11.602;2023-06-19T06:58:25;30.10;69.30
37938;DHT22;23763;48.130;11.602;2023-06-19T07:00:51;29.50;69.90
37938;DHT22;23763;48.130;11.602;2023-06-19T07:03:17;29.10;70.20
37938;DHT22;23763;48.130;11.602;2023-06-19T07:05:43;28.30;71.50
37938;DHT22;23763;48.130;11.602;2023-06-19T07:08:09;27.60;73.00
37938;DHT22;23763;48.130;11.602;2023-06-19T07:10:35;27.20;74.60
37938;DHT22;23763;48.130;11.602;2023-06-19T07:13:00;26.80;76.10
37938;DHT22;23763;48.130;11.602;2023-06-19T07:15:26;26.60;75.90
37938;DHT22;23763;48.130;11.602;2023-06-19T07:17:51;26.50;75.30
37938;DHT22;23763;48.130;11.602;2023-06-19T07:20:17;26.60;75.70
37938;DHT22;23763;48.130;11.602;2023-06-19T07:22:43;26.60;76.00
37938;DHT22;23763;48.130;11.602;2023-06-19T07:25:11;27.00;75.60
37938;DHT22;23763;48.130;11.602;2023-06-19T07:27:37;28.00;73.70
37938;DHT22;23763;48.130;11.602;2023-06-19T07:30:03;28.90;71.40
37938;DHT22;23763;48.130;11.602;2023-06-19T07:32:29;28.50;71.00
37938;DHT22;23763;48.130;11.602;2023-06-19T07:34:55;28.40;72.20
37938;DHT22;23763;48.130;11.602;2023-06-19T07:37:20;28.40;72.00
37938;DHT22;23763;48.130;11.602;2023-06-19T07:39:47;28.20;71.90
37938;DHT22;23763;48.130;11.602;2023-06-19T07:42:14;28.10;72.10
37938;DHT22;23763;48.130;11.602;2023-06-19T07:44:40;27.90;72.30
37938;DHT22;23763;48.130;11.602;2023-06-19T07:47:07;28.00;73.20
37938;DHT22;23763;48.130;11.602;2023-06-19T07:49:33;28.60;71.80
37938;DHT22;23763;48.130;11.602;2023-06-19T07:51:59;28.60;70.60
37938;DHT22;23763;48.130;11.602;2023-06-19T07:54:25;28.40;71.00
37938;DHT22;23763;48.130;11.602;2023-06-19T07:56:51;28.30;70.90
37938;DHT22;23763;48.130;11.602;2023-06-19T07:59:17;29.30;69.20
37938;DHT22;23763;48.130;11.602;2023-06-19T08:01:43;30.10;68.50
37938;DHT22;23763;48.130;11.602;2023-06-19T08:04:09;31.70;65.10
37938;DHT22;23763;48.130;11.602;2023-06-19T08:06:34;33.60;61.90
37938;DHT22;23763;48.130;11.602;2023-06-19T08:09:00;35.50;58.40
37938;DHT22;23763;48.130;11.602;2023-06-19T08:11:26;37.00;56.60
37938;DHT22;23763;48.130;11.602;2023-06-19T08:13:52;38.40;53.60
37938;DHT22;23763;48.130;11.602;2023-06-19T08:16:17;38.70;52.30
37938;DHT22;23763;48.130;11.602;2023-06-19T08:18:44;38.60;52.40
37938;DHT22;23763;48.130;11.602;2023-06-19T08:21:10;38.10;52.30
37938;DHT22;23763;48.130;11.602;2023-06-19T08:23:36;37.10;53.60
37938;DHT22;23763;48.130;11.602;2023-06-19T08:26:03;35.70;55.40
37938;DHT22;23763;48.130;11.602;2023-06-19T08:28:30;34.90;56.60
37938;DHT22;23763;48.130;11.602;2023-06-19T08:30:56;35.20;56.70
37938;DHT22;23763;48.130;11.602;2023-06-19T08:33:22;34.30;57.50
37938;DHT22;23763;48.130;11.602;2023-06-19T08:35:48;33.30;59.00
37938;DHT22;23763;48.130;11.602;2023-06-19T08:38:13;32.40;60.80
37938;DHT22;23763;48.130;11.602;2023-06-19T08:40:44;32.20;61.60
37938;DHT22;23763;48.130;11.602;2023-06-19T08:43:10;32.10;61.70
37938;DHT22;23763;48.130;11.602;2023-06-19T08:45:35;31.50;62.80
37938;DHT22;23763;48.130;11.602;2023-06-19T08:48:02;30.90;64.10
37938;DHT22;23763;48.130;11.602;2023-06-19T08:50:29;30.70;65.20
37938;DHT22;23763;48.130;11.602;2023-06-19T08:52:56;31.50;64.00
37938;DHT22;23763;48.130;11.602;2023-06-19T08:55:21;32.30;62.70
37938;DHT22;23763;48.130;11.602;2023-06-19T08:57:48;32.40;61.80
37938;DHT22;23763;48.130;11.602;2023-06-19T09:00:24;32.30;61.80
37938;DHT22;23763;48.130;11.602;2023-06-19T09:02:51;32.20;62.40
37938;DHT22;23763;48.130;11.602;2023-06-19T09:05:19;33.00;61.30
37938;DHT22;23763;48.130;11.602;2023-06-19T09:07:57;33.30;60.20
37938;DHT22;23763;48.130;11.602;2023-06-19T09:10:23;33.20;59.30
37938;DHT22;23763;48.130;11.602;2023-06-19T09:13:03;33.40;59.30
37938;DHT22;23763;48.130;11.602;2023-06-19T09:15:35;33.60;59.10
37938;DHT22;23763;48.130;11.602;2023-06-19T09:18:09;33.00;58.30
37938;DHT22;23763;48.130;11.602;2023-06-19T09:20:38;32.30;59.30
37938;DHT22;23763;48.130;11.602;2023-06-19T09:23:07;31.60;60.70
37938;DHT22;23763;48.130;11.602;2023-06-19T09:25:42;31.10;61.60
37938;DHT22;23763;48.130;11.602;2023-06-19T09:28:17;31.20;61.70
37938;DHT22;23763;48.130;11.602;2023-06-19T09:30:52;31.40;62.00
37938;DHT22;23763;48.130;11.602;2023-06-19T09:33:18;31.30;61.90
37938;DHT22;23763;48.130;11.602;2023-06-19T09:35:43;31.10;63.00
37938;DHT22;23763;48.130;11.602;2023-06-19T09:38:10;31.10;62.70
37938;DHT22;23763;48.130;11.602;2023-06-19T09:40:37;30.90;64.10
37938;DHT22;23763;48.130;11.602;2023-06-19T09:43:03;31.20;64.20
37938;DHT22;23763;48.130;11.602;2023-06-19T09:45:31;31.90;62.80
37938;DHT22;23763;48.130;11.602;2023-06-19T09:47:57;32.60;61.30
37938;DHT22;23763;48.130;11.602;2023-06-19T09:50:23;33.20;60.60
37938;DHT22;23763;48.130;11.602;2023-06-19T09:52:54;33.70;59.90
37938;DHT22;23763;48.130;11.602;2023-06-19T09:55:22;33.60;59.90
37938;DHT22;23763;48.130;11.602;2023-06-19T09:57:49;33.50;60.00
37938;DHT22;23763;48.130;11.602;2023-06-19T10:00:16;33.20;60.70
37938;DHT22;23763;48.130;11.602;2023-06-19T10:02:48;32.90;61.90
37938;DHT22;23763;48.130;11.602;2023-06-19T10:05:14;32.80;61.80
37938;DHT22;23763;48.130;11.602;2023-06-19T10:07:45;32.70;62.30
37938;DHT22;23763;48.130;11.602;2023-06-19T10:10:21;32.50;62.10
37938;DHT22;23763;48.130;11.602;2023-06-19T10:12:48;32.40;63.00
37938;DHT22;23763;48.130;11.602;2023-06-19T10:15:26;32.10;63.20
37938;DHT22;23763;48.130;11.602;2023-06-19T10:18:03;31.90;63.90
37938;DHT22;23763;48.130;11.602;2023-06-19T10:23:06;31.30;65.50
37938;DHT22;23763;48.130;11.602;2023-06-19T10:25:37;31.30;65.40
37938;DHT22;23763;48.130;11.602;2023-06-19T10:28:04;31.10;65.60
37938;DHT22;23763;48.130;11.602;2023-06-19T10:30:41;30.80;66.40
37938;DHT22;23763;48.130;11.602;2023-06-19T10:33:07;30.60;67.10
37938;DHT22;23763;48.130;11.602;2023-06-19T10:35:40;30.50;67.40
37938;DHT22;23763;48.130;11.602;2023-06-19T10:38:09;30.50;67.70
37938;DHT22;23763;48.130;11.602;2023-06-19T10:40:38;30.40;67.60
37938;DHT22;23763;48.130;11.602;2023-06-19T10:43:04;30.40;68.00
37938;DHT22;23763;48.130;11.602;2023-06-19T10:45:30;30.30;68.20
37938;DHT22;23763;48.130;11.602;2023-06-19T10:47:55;30.60;67.90
37938;DHT22;23763;48.130;11.602;2023-06-19T10:50:22;30.80;67.40
37938;DHT22;23763;48.130;11.602;2023-06-19T10:52:48;30.80;67.20
37938;DHT22;23763;48.130;11.602;2023-06-19T10:55:19;30.70;67.20
37938;DHT22;23763;48.130;11.602;2023-06-19T10:57:45;30.80;68.00
37938;DHT22;23763;48.130;11.602;2023-06-19T11:00:11;30.90;67.60
37938;DHT22;23763;48.130;11.602;2023-06-19T11:02:39;31.10;67.10
37938;DHT22;23763;48.130;11.602;2023-06-19T11:05:06;31.10;66.30
37938;DHT22;23763;48.130;11.602;2023-06-19T11:07:32;31.00;66.00
37938;DHT22;23763;48.130;11.602;2023-06-19T11:09:58;31.00;66.50
37938;DHT22;23763;48.130;11.602;2023-06-19T11:12:23;31.00;66.40
37938;DHT22;23763;48.130;11.602;2023-06-19T11:14:49;31.00;65.90
37938;DHT22;23763;48.130;11.602;2023-06-19T11:17:19;30.80;66.30
37938;DHT22;23763;48.130;11.602;2023-06-19T11:19:47;30.70;66.50
37938;DHT22;23763;48.130;11.602;2023-06-19T11:22:12;30.70;66.90
37938;DHT22;23763;48.130;11.602;2023-06-19T11:24:45;30.90;66.50
37938;DHT22;23763;48.130;11.602;2023-06-19T11:27:21;30.90;66.10
37938;DHT22;23763;48.130;11.602;2023-06-19T11:29:59;30.90;65.40
37938;DHT22;23763;48.130;11.602;2023-06-19T11:32:36;30.50;65.80
37938;DHT22;23763;48.130;11.602;2023-06-19T11:35:08;30.20;66.50
37938;DHT22;23763;48.130;11.602;2023-06-19T11:37:34;30.40;66.20
37938;DHT22;23763;48.130;11.602;2023-06-19T11:40:00;30.50;65.60
37938;DHT22;23763;48.130;11.602;2023-06-19T11:42:28;30.50;65.40
37938;DHT22;23763;48.130;11.602;2023-06-19T11:44:57;30.50;65.60
37938;DHT22;23763;48.130;11.602;2023-06-19T11:47:26;30.80;64.70
37938;DHT22;23763;48.130;11.602;2023-06-19T11:49:51;31.10;64.60
37938;DHT22;23763;48.130;11.602;2023-06-19T11:52:17;31.20;65.00
37938;DHT22;23763;48.130;11.602;2023-06-19T11:54:43;31.20;63.80
37938;DHT22;23763;48.130;11.602;2023-06-19T11:57:09;31.20;63.70
37938;DHT22;23763;48.130;11.602;2023-06-19T11:59:39;31.10;63.80
37938;DHT22;23763;48.130;11.602;2023-06-19T12:02:05;30.80;64.70
37938;DHT22;23763;48.130;11.602;2023-06-19T12:04:31;29.90;67.00
37938;DHT22;23763;48.130;11.602;2023-06-19T12:06:57;29.60;68.20
37938;DHT22;23763;48.130;11.602;2023-06-19T12:09:22;29.40;68.70
37938;DHT22;23763;48.130;11.602;2023-06-19T12:11:48;29.20;68.70
37938;DHT22;23763;48.130;11.602;2023-06-19T12:14:14;29.20;69.20
37938;DHT22;23763;48.130;11.602;2023-06-19T12:16:39;29.30;68.80
37938;DHT22;23763;48.130;11.602;2023-06-19T12:19:05;29.30;68.70
37938;DHT22;23763;48.130;11.602;2023-06-19T12:21:31;29.50;68.60
37938;DHT22;23763;48.130;11.602;2023-06-19T12:23:56;29.50;68.30
37938;DHT22;23763;48.130;11.602;2023-06-19T12:26:22;29.40;68.20
37938;DHT22;23763;48.130;11.602;2023-06-19T12:28:50;29.10;69.40
37938;DHT22;23763;48.130;11.602;2023-06-19T12:31:17;29.30;69.20
37938;DHT22;23763;48.130;11.602;2023-06-19T12:33:42;29.10;69.20
37938;DHT22;23763;48.130;11.602;2023-06-19T12:36:11;29.20;69.60
37938;DHT22;23763;48.130;11.602;2023-06-19T12:38:40;29.30;68.40
37938;DHT22;23763;48.130;11.602;2023-06-19T12:41:06;29.40;67.90
37938;DHT22;23763;48.130;11.602;2023-06-19T12:43:32;29.40;68.20
37938;DHT22;23763;48.130;11.602;2023-06-19T12:45:58;29.60;67.90
37938;DHT22;23763;48.130;11.602;2023-06-19T12:48:27;29.60;68.10
37938;DHT22;23763;48.130;11.602;2023-06-19T12:50:53;29.70;68.50
37938;DHT22;23763;48.130;11.602;2023-06-19T12:53:18;29.70;67.40
37938;DHT22;23763;48.130;11.602;2023-06-19T12:55:44;29.70;67.10
37938;DHT22;23763;48.130;11.602;2023-06-19T12:58:10;29.70;67.10
37938;DHT22;23763;48.130;11.602;2023-06-19T13:00:37;29.30;68.00
37938;DHT22;23763;48.130;11.602;2023-06-19T13:03:02;29.40;68.20
37938;DHT22;23763;48.130;11.602;2023-06-19T13:05:28;29.10;68.50
37938;DHT22;23763;48.130;11.602;2023-06-19T13:07:54;28.90;68.60
37938;DHT22;23763;48.130;11.602;2023-06-19T13:10:20;28.70;69.00
37938;DHT22;23763;48.130;11.602;2023-06-19T13:12:45;28.80;69.20
37938;DHT22;23763;48.130;11.602;2023-06-19T13:15:11;29.00;68.90
37938;DHT22;23763;48.130;11.602;2023-06-19T13:17:37;29.00;68.30
37938;DHT22;23763;48.130;11.602;2023-06-19T13:20:02;29.10;68.50
37938;DHT22;23763;48.130;11.602;2023-06-19T13:22:30;29.20;67.60
37938;DHT22;23763;48.130;11.602;2023-06-19T13:24:56;29.20;67.90
37938;DHT22;23763;48.130;11.602;2023-06-19T13:27:21;29.10;67.90
37938;DHT22;23763;48.130;11.602;2023-06-19T13:29:47;29.20;68.00
37938;DHT22;23763;48.130;11.602;2023-06-19T13:32:13;28.80;67.70
37938;DHT22;23763;48.130;11.602;2023-06-19T13:34:38;28.80;68.40
37938;DHT22;23763;48.130;11.602;2023-06-19T13:37:04;28.50;68.60
37938;DHT22;23763;48.130;11.602;2023-06-19T13:39:30;28.60;69.00
37938;DHT22;23763;48.130;11.602;2023-06-19T13:41:55;28.60;68.70
37938;DHT22;23763;48.130;11.602;2023-06-19T13:44:21;28.80;68.40
37938;DHT22;23763;48.130;11.602;2023-06-19T13:46:47;28.90;68.30
37938;DHT22;23763;48.130;11.602;2023-06-19T13:49:13;29.10;68.00
37938;DHT22;23763;48.130;11.602;2023-06-19T13:51:39;29.20;67.40
37938;DHT22;23763;48.130;11.602;2023-06-19T13:54:05;29.20;68.00
37938;DHT22;23763;48.130;11.602;2023-06-19T13:56:31;29.10;68.00
37938;DHT22;23763;48.130;11.602;2023-06-19T13:58:58;28.90;67.90
37938;DHT22;23763;48.130;11.602;2023-06-19T14:01:24;28.90;68.40
37938;DHT22;23763;48.130;11.602;2023-06-19T14:03:51;29.00;67.90
37938;DHT22;23763;48.130;11.602;2023-06-19T14:06:17;29.20;68.00
37938;DHT22;23763;48.130;11.602;2023-06-19T14:08:44;29.30;66.90
37938;DHT22;23763;48.130;11.602;2023-06-19T14:11:10;29.20;67.30
37938;DHT22;23763;48.130;11.602;2023-06-19T14:13:37;29.20;67.10
37938;DHT22;23763;48.130;11.602;2023-06-19T14:16:02;29.10;67.20
37938;DHT22;23763;48.130;11.602;2023-06-19T14:18:28;29.20;67.60
37938;DHT22;23763;48.130;11.602;2023-06-19T14:20:54;29.50;67.30
37938;DHT22;23763;48.130;11.602;2023-06-19T14:23:21;29.60;67.00
37938;DHT22;23763;48.130;11.602;2023-06-19T14:25:46;29.80;66.40
37938;DHT22;23763;48.130;11.602;2023-06-19T14:28:12;29.80;66.00
37938;DHT22;23763;48.130;11.602;2023-06-19T14:30:39;29.90;65.90
37938;DHT22;23763;48.130;11.602;2023-06-19T14:33:05;29.90;66.20
37938;DHT22;23763;48.130;11.602;2023-06-19T14:35:31;30.10;65.80
37938;DHT22;23763;48.130;11.602;2023-06-19T14:37:56;30.00;65.70
37938;DHT22;23763;48.130;11.602;2023-06-19T14:40:22;29.90;65.70
37938;DHT22;23763;48.130;11.602;2023-06-19T14:42:47;29.80;66.40
37938;DHT22;23763;48.130;11.602;2023-06-19T14:45:14;29.80;66.40
37938;DHT22;23763;48.130;11.602;2023-06-19T14:47:40;29.60;66.90
37938;DHT22;23763;48.130;11.602;2023-06-19T14:50:06;29.70;67.90
37938;DHT22;23763;48.130;11.602;2023-06-19T14:52:32;29.80;66.80
37938;DHT22;23763;48.130;11.602;2023-06-19T14:54:58;29.90;66.70
37938;DHT22;23763;48.130;11.602;2023-06-19T14:57:25;30.00;65.60
37938;DHT22;23763;48.130;11.602;2023-06-19T14:59:51;30.00;65.60
37938;DHT22;23763;48.130;11.602;2023-06-19T15:02:16;29.80;66.50
37938;DHT22;23763;48.130;11.602;2023-06-19T15:04:42;29.80;66.20
37938;DHT22;23763;48.130;11.602;2023-06-19T15:07:07;29.90;66.00
37938;DHT22;23763;48.130;11.602;2023-06-19T15:09:33;29.90;66.10
37938;DHT22;23763;48.130;11.602;2023-06-19T15:11:58;30.00;65.90
37938;DHT22;23763;48.130;11.602;2023-06-19T15:14:24;30.10;65.50